Kamakuramaru — JG5731 — position and weather

sailwx.info

Track history (hours):
 
Tides and Currents Weather Stations Pressure Air Temp Water Temp Dewpoint Dewpoint Depression Visibility Wind Speed Wind Dir Waves Ship Positions

Kamakuramaru

Last reported at 2014-Oct-21 00:34 UTC. Time now 2014-Oct-21 00:39 UTC.
Position N 35°29' E 139°43'.

Length 31 m; draft 2.5 m.

Type: Tug. MMSI: 431000439.

Date/timePositionNaut miles runAvg speedWind from/ knotsBaromVisibWave heightAir tempDewpointWater temp
2014-Oct-21 00:34N 35°29' E 139°43'3 2.6
2014-Oct-20 23:34N 35°28' E 139°40'2 1.7
2014-Oct-20 22:34N 35°27' E 139°38'0 0.0
2014-Oct-20 21:34N 35°27' E 139°38'0 0.0
2014-Oct-20 20:34N 35°27' E 139°38'0 0.0
2014-Oct-20 19:33N 35°27' E 139°38'0 0.0
2014-Oct-20 18:33N 35°27' E 139°38'0 0.0
2014-Oct-20 17:34N 35°27' E 139°38'0 0.0
2014-Oct-20 16:34N 35°27' E 139°38'0 0.0
2014-Oct-20 15:33N 35°27' E 139°38'0 0.0
2014-Oct-20 14:34N 35°27' E 139°38'0 0.0
2014-Oct-20 13:34N 35°27' E 139°38'0 0.0
2014-Oct-20 12:34N 35°27' E 139°38'0 0.0
2014-Oct-20 11:34N 35°27' E 139°38'0 0.0
2014-Oct-20 10:33N 35°27' E 139°38'0 0.0
2014-Oct-20 09:34N 35°27' E 139°38'0 0.0
2014-Oct-20 08:34N 35°27' E 139°38'0 0.0
2014-Oct-20 07:34N 35°27' E 139°38'1 0.6
2014-Oct-20 06:33N 35°27' E 139°39'0 0.3
2014-Oct-20 05:33N 35°27' E 139°39'0 0.0
2014-Oct-20 04:34N 35°27' E 139°39'1 1.0
2014-Oct-20 03:34N 35°27' E 139°41'1 1.0
2014-Oct-20 02:33N 35°27' E 139°39'0 0.0
2014-Oct-20 01:34N 35°27' E 139°39'0 0.0
2014-Oct-20 00:34N 35°27' E 139°39'0 0.0
2014-Oct-19 23:34N 35°27' E 139°39'2 2.4
2014-Oct-19 22:34N 35°26' E 139°42'3 3.3
2014-Oct-19 21:33N 35°27' E 139°38'0 0.0
2014-Oct-19 20:34N 35°27' E 139°38'0 0.0
2014-Oct-19 19:34N 35°27' E 139°38'0 0.0
2014-Oct-19 18:34N 35°27' E 139°38'0 0.0
2014-Oct-19 17:34N 35°27' E 139°38'0 0.0
2014-Oct-19 16:34N 35°27' E 139°38'0 0.0
2014-Oct-19 15:34N 35°27' E 139°38'0 0.0
2014-Oct-19 14:33N 35°27' E 139°38'0 0.0
2014-Oct-19 13:33N 35°27' E 139°38'0 0.0
2014-Oct-19 12:34N 35°27' E 139°38'0 0.0
2014-Oct-19 11:34N 35°27' E 139°38'0 0.0
2014-Oct-19 10:33N 35°27' E 139°38'0 0.0
2014-Oct-19 09:34N 35°27' E 139°38'0 0.0
2014-Oct-19 08:34N 35°27' E 139°38'0 0.0
2014-Oct-19 07:34N 35°27' E 139°38'0 0.0
2014-Oct-19 06:34N 35°27' E 139°38'0 0.0
2014-Oct-19 05:34N 35°27' E 139°38'0 0.0
2014-Oct-19 04:34N 35°27' E 139°38'0 0.0
2014-Oct-19 03:34N 35°27' E 139°38'0 0.0
2014-Oct-19 02:34N 35°27' E 139°38'0 0.0
2014-Oct-19 01:34N 35°27' E 139°38'0 0.0
2014-Oct-19 00:34N 35°27' E 139°38'0 0.0
2014-Oct-18 23:33N 35°27' E 139°38'0 0.0
2014-Oct-18 22:33N 35°27' E 139°38'0 0.0
2014-Oct-18 21:33N 35°27' E 139°38'0 0.0
2014-Oct-18 20:34N 35°27' E 139°38'0 0.0
2014-Oct-18 19:34N 35°27' E 139°38'0 0.0
2014-Oct-18 18:33N 35°27' E 139°38'0 0.0
2014-Oct-18 17:33N 35°27' E 139°38'0 0.0
2014-Oct-18 16:33N 35°27' E 139°38'0 0.0
2014-Oct-18 15:33N 35°27' E 139°38'0 0.0
2014-Oct-18 14:34N 35°27' E 139°38'0 0.0
2014-Oct-18 13:34N 35°27' E 139°38'0 0.0
2014-Oct-18 12:34N 35°27' E 139°38'0 0.0
2014-Oct-18 11:34N 35°27' E 139°38'0 0.0
2014-Oct-18 10:34N 35°27' E 139°38'0 0.0
2014-Oct-18 09:33N 35°27' E 139°38'0 0.0
2014-Oct-18 08:34N 35°27' E 139°38'0 0.0
2014-Oct-18 07:34N 35°27' E 139°38'0 0.0
2014-Oct-18 06:34N 35°27' E 139°38'0 0.0
2014-Oct-18 05:33N 35°27' E 139°38'0 0.0
2014-Oct-18 04:34N 35°27' E 139°38'0 0.0
2014-Oct-18 03:34N 35°27' E 139°38'0 0.0
2014-Oct-18 02:33N 35°27' E 139°38'0 0.0
2014-Oct-18 01:34N 35°27' E 139°38'0 0.0
2014-Oct-18 00:34N 35°27' E 139°38'4 4.3
2014-Oct-17 23:34N 35°23' E 139°41'2 2.1
2014-Oct-17 22:34N 35°24' E 139°38'3 2.8
2014-Oct-17 21:34N 35°23' E 139°41'3 2.6
2014-Oct-17 20:34N 35°26' E 139°42'0 0.0
2014-Oct-17 19:34N 35°26' E 139°42'0 0.0
2014-Oct-17 18:34N 35°26' E 139°42'1 1.3
2014-Oct-17 17:33N 35°27' E 139°40'1 1.0
2014-Oct-17 16:34N 35°28' E 139°41'1 0.9
2014-Oct-17 15:34N 35°28' E 139°42'1 0.9
2014-Oct-17 14:34N 35°28' E 139°40'0 0.0
2014-Oct-17 13:33N 35°28' E 139°40'1 1.3
2014-Oct-17 12:34N 35°27' E 139°42'2 2.4
2014-Oct-17 11:34N 35°27' E 139°44'1 1.4
2014-Oct-17 10:33N 35°27' E 139°43'1 1.3
2014-Oct-17 09:34N 35°27' E 139°44'2 2.5
2014-Oct-17 08:34N 35°27' E 139°41'2 2.4
2014-Oct-17 07:33N 35°27' E 139°38'0 0.0
2014-Oct-17 06:34N 35°27' E 139°38'0 0.0
2014-Oct-17 05:34N 35°27' E 139°38'0 0.0
2014-Oct-17 04:34N 35°27' E 139°38'0 0.0
2014-Oct-17 03:34N 35°27' E 139°38'0 0.0
2014-Oct-17 02:33N 35°27' E 139°38'0 0.0
2014-Oct-17 01:34N 35°27' E 139°38'0 0.0
2014-Oct-17 00:33N 35°27' E 139°38'0 0.0
2014-Oct-16 23:34N 35°27' E 139°38'0 0.0
2014-Oct-16 22:34N 35°27' E 139°38'0 0.0
2014-Oct-16 21:33N 35°27' E 139°38'0 0.0
2014-Oct-16 20:34N 35°27' E 139°38'0 0.0
2014-Oct-16 19:34N 35°27' E 139°38'0 0.0
2014-Oct-16 18:33N 35°27' E 139°38'0 0.0
2014-Oct-16 17:34N 35°27' E 139°38'0 0.0
2014-Oct-16 16:34N 35°27' E 139°38'0 0.0
2014-Oct-16 15:34N 35°27' E 139°38'0 0.0
2014-Oct-16 14:34N 35°27' E 139°38'0 0.0
2014-Oct-16 13:33N 35°27' E 139°38'0 0.0
2014-Oct-16 12:34N 35°27' E 139°38'0 0.0
2014-Oct-16 11:34N 35°27' E 139°38'0 0.0
2014-Oct-16 10:33N 35°27' E 139°38'0 0.0
2014-Oct-16 09:33N 35°27' E 139°38'0 0.0
2014-Oct-16 08:34N 35°27' E 139°38'0 0.0
2014-Oct-16 07:34N 35°27' E 139°38'0 0.0
2014-Oct-16 06:34N 35°27' E 139°38'0 0.0
2014-Oct-16 05:34N 35°27' E 139°38'0 0.0
2014-Oct-16 04:33N 35°27' E 139°38'0 0.0
2014-Oct-16 03:33N 35°27' E 139°38'0 0.0
2014-Oct-16 02:33N 35°27' E 139°38'0 0.0
2014-Oct-16 01:34N 35°27' E 139°38'0 0.0
2014-Oct-16 00:33N 35°27' E 139°38'0 0.0
2014-Oct-15 18:24N 35°27' E 139°38'0 0.0
2014-Oct-15 17:34N 35°27' E 139°38'0 0.0
2014-Oct-15 16:34N 35°27' E 139°38'0 0.0
2014-Oct-15 15:34N 35°27' E 139°38'0 0.0
2014-Oct-15 14:34N 35°27' E 139°38'0 0.0
2014-Oct-15 13:34N 35°27' E 139°38'0 0.0
2014-Oct-15 12:34N 35°27' E 139°38'0 0.0
2014-Oct-15 11:34N 35°27' E 139°38'0 0.0
2014-Oct-15 10:33N 35°27' E 139°38'0 0.0
2014-Oct-15 09:33N 35°27' E 139°38'0 0.0
2014-Oct-15 08:34N 35°27' E 139°38'0 0.0
2014-Oct-15 07:34N 35°27' E 139°38'0 0.0
2014-Oct-15 06:34N 35°27' E 139°38'0 0.0
2014-Oct-15 05:33N 35°27' E 139°38'0 0.0
2014-Oct-15 04:34N 35°27' E 139°38'0 0.0
2014-Oct-15 03:33N 35°27' E 139°38'0 0.0
2014-Oct-15 02:33N 35°27' E 139°38'0 0.0
2014-Oct-15 01:34N 35°27' E 139°38'0 0.0
2014-Oct-15 00:33N 35°27' E 139°38'0 0.0
2014-Oct-14 23:34N 35°27' E 139°38'5 4.8
2014-Oct-14 22:34N 35°30' E 139°44'1 0.8
2014-Oct-14 21:34N 35°29' E 139°43'3 2.6
2014-Oct-14 20:34N 35°27' E 139°41'2 1.8
2014-Oct-14 19:34N 35°27' E 139°38'0 0.0
2014-Oct-14 18:33N 35°27' E 139°38'0 0.0
2014-Oct-14 17:34N 35°27' E 139°38'0 0.0
2014-Oct-14 16:34N 35°27' E 139°38'0 0.0
2014-Oct-14 15:34N 35°27' E 139°38'0 0.0
2014-Oct-14 14:33N 35°27' E 139°38'0 0.0
2014-Oct-14 13:33N 35°27' E 139°38'0 0.0
2014-Oct-14 12:34N 35°27' E 139°38'0 0.0
2014-Oct-14 11:34N 35°27' E 139°38'0 0.0
2014-Oct-14 10:34N 35°27' E 139°38'0 0.0
2014-Oct-14 09:34N 35°27' E 139°38'0 0.0
2014-Oct-14 08:34N 35°27' E 139°38'0 0.0
2014-Oct-14 07:34N 35°27' E 139°38'0 0.0
2014-Oct-14 06:34N 35°27' E 139°38'5 4.5
2014-Oct-14 05:34N 35°30' E 139°43'2 2.4
2014-Oct-14 04:34N 35°31' E 139°46'4 3.6
2014-Oct-14 03:34N 35°28' E 139°44'4 4.3
2014-Oct-14 02:33N 35°27' E 139°38'0 0.0
2014-Oct-14 01:33N 35°27' E 139°38'0 0.0
2014-Oct-14 00:33N 35°27' E 139°38'0 0.0
2014-Oct-13 23:33N 35°27' E 139°38'0 0.0
2014-Oct-13 22:33N 35°27' E 139°38'0 0.0
2014-Oct-13 21:33N 35°27' E 139°38'0 0.0
2014-Oct-13 20:24N 35°27' E 139°38'0 0.0
2014-Oct-13 19:30N 35°27' E 139°38'0 0.0
2014-Oct-13 18:29N 35°27' E 139°38'0 0.0
2014-Oct-13 17:33N 35°27' E 139°38'0 0.0
2014-Oct-13 16:33N 35°27' E 139°38'0 0.0
2014-Oct-13 15:32N 35°27' E 139°38'0 0.0
2014-Oct-13 14:29N 35°27' E 139°38'0 0.0
2014-Oct-13 13:33N 35°27' E 139°38'0 0.0
2014-Oct-12 20:34N 35°27' E 139°38'0 0.0
2014-Oct-12 19:34N 35°27' E 139°38'0 0.0
2014-Oct-12 18:33N 35°27' E 139°38'0 0.0
2014-Oct-12 17:33N 35°27' E 139°38'0 0.0
2014-Oct-12 16:34N 35°27' E 139°38'0 0.0
2014-Oct-12 15:34N 35°27' E 139°38'0 0.0
2014-Oct-12 14:34N 35°27' E 139°38'0 0.0
2014-Oct-12 13:34N 35°27' E 139°38'0 0.0
2014-Oct-12 12:33N 35°27' E 139°38'0 0.0
2014-Oct-12 11:34N 35°27' E 139°38'0 0.0
2014-Oct-12 10:34N 35°27' E 139°38'0 0.0
2014-Oct-12 09:33N 35°27' E 139°38'0 0.0
2014-Oct-12 08:34N 35°27' E 139°38'5 4.7
2014-Oct-12 07:34N 35°30' E 139°43'1 1.3
2014-Oct-12 06:33N 35°30' E 139°45'4 4.3
2014-Oct-12 05:34N 35°27' E 139°42'2 1.7
2014-Oct-12 04:33N 35°28' E 139°40'0 0.0
2014-Oct-12 03:34N 35°28' E 139°40'1 0.7
2014-Oct-12 02:33N 35°28' E 139°41'4 3.7
2014-Oct-12 01:33N 35°26' E 139°45'5 5.2
2014-Oct-12 00:33N 35°27' E 139°38'0 0.0
2014-Oct-11 23:33N 35°27' E 139°38'0 0.0
2014-Oct-11 22:34N 35°27' E 139°38'0 0.0
2014-Oct-11 21:33N 35°27' E 139°38'0 0.0
2014-Oct-11 20:33N 35°27' E 139°38'0 0.0
2014-Oct-11 19:33N 35°27' E 139°38'0 0.0
2014-Oct-11 18:33N 35°27' E 139°38'0 0.0
2014-Oct-11 17:34N 35°27' E 139°38'0 0.0
2014-Oct-11 16:34N 35°27' E 139°38'0 0.0
2014-Oct-11 15:33N 35°27' E 139°38'0 0.0
2014-Oct-11 14:33N 35°27' E 139°38'0 0.0
2014-Oct-11 13:34N 35°27' E 139°38'0 0.0
2014-Oct-11 12:34N 35°27' E 139°38'0 0.0
2014-Oct-11 11:33N 35°27' E 139°38'0 0.0
2014-Oct-11 10:33N 35°27' E 139°38'0 0.0
2014-Oct-11 09:33N 35°27' E 139°38'0 0.0
2014-Oct-11 08:33N 35°27' E 139°38'0 0.0
2014-Oct-11 07:34N 35°27' E 139°38'0 0.0
2014-Oct-11 06:34N 35°27' E 139°38'0 0.0
2014-Oct-11 05:33N 35°27' E 139°38'0 0.0
2014-Oct-11 04:34N 35°27' E 139°38'0 0.0
2014-Oct-11 03:33N 35°27' E 139°38'0 0.0
2014-Oct-11 02:34N 35°27' E 139°38'0 0.0
2014-Oct-11 01:34N 35°27' E 139°38'0 0.0
2014-Oct-11 00:34N 35°27' E 139°38'  
Track history (hours):
 
Tides and Currents Weather Stations Pressure Air Temp Water Temp Dewpoint Dewpoint Depression Visibility Wind Speed Wind Dir Waves Ship Positions

Kamakuramaru

Last reported at 2014-Oct-21 00:34 UTC. Time now 2014-Oct-21 00:39 UTC.
Position N 35°29' E 139°43'.

Length 31 m; draft 2.5 m.

Type: Tug. MMSI: 431000439.

Date/timePositionNaut miles runAvg speedWind from/ knotsBaromVisibWave heightAir tempDewpointWater temp
2014-Oct-21 00:34N 35°29' E 139°43'3 2.6
2014-Oct-20 23:34N 35°28' E 139°40'2 1.7
2014-Oct-20 22:34N 35°27' E 139°38'0 0.0
2014-Oct-20 21:34N 35°27' E 139°38'0 0.0
2014-Oct-20 20:34N 35°27' E 139°38'0 0.0
2014-Oct-20 19:33N 35°27' E 139°38'0 0.0
2014-Oct-20 18:33N 35°27' E 139°38'0 0.0
2014-Oct-20 17:34N 35°27' E 139°38'0 0.0
2014-Oct-20 16:34N 35°27' E 139°38'0 0.0
2014-Oct-20 15:33N 35°27' E 139°38'0 0.0
2014-Oct-20 14:34N 35°27' E 139°38'0 0.0
2014-Oct-20 13:34N 35°27' E 139°38'0 0.0
2014-Oct-20 12:34N 35°27' E 139°38'0 0.0
2014-Oct-20 11:34N 35°27' E 139°38'0 0.0
2014-Oct-20 10:33N 35°27' E 139°38'0 0.0
2014-Oct-20 09:34N 35°27' E 139°38'0 0.0
2014-Oct-20 08:34N 35°27' E 139°38'0 0.0
2014-Oct-20 07:34N 35°27' E 139°38'1 0.6
2014-Oct-20 06:33N 35°27' E 139°39'0 0.3
2014-Oct-20 05:33N 35°27' E 139°39'0 0.0
2014-Oct-20 04:34N 35°27' E 139°39'1 1.0
2014-Oct-20 03:34N 35°27' E 139°41'1 1.0
2014-Oct-20 02:33N 35°27' E 139°39'0 0.0
2014-Oct-20 01:34N 35°27' E 139°39'0 0.0
2014-Oct-20 00:34N 35°27' E 139°39'0 0.0
2014-Oct-19 23:34N 35°27' E 139°39'2 2.4
2014-Oct-19 22:34N 35°26' E 139°42'3 3.3
2014-Oct-19 21:33N 35°27' E 139°38'0 0.0
2014-Oct-19 20:34N 35°27' E 139°38'0 0.0
2014-Oct-19 19:34N 35°27' E 139°38'0 0.0
2014-Oct-19 18:34N 35°27' E 139°38'0 0.0
2014-Oct-19 17:34N 35°27' E 139°38'0 0.0
2014-Oct-19 16:34N 35°27' E 139°38'0 0.0
2014-Oct-19 15:34N 35°27' E 139°38'0 0.0
2014-Oct-19 14:33N 35°27' E 139°38'0 0.0
2014-Oct-19 13:33N 35°27' E 139°38'0 0.0
2014-Oct-19 12:34N 35°27' E 139°38'0 0.0
2014-Oct-19 11:34N 35°27' E 139°38'0 0.0
2014-Oct-19 10:33N 35°27' E 139°38'0 0.0
2014-Oct-19 09:34N 35°27' E 139°38'0 0.0
2014-Oct-19 08:34N 35°27' E 139°38'0 0.0
2014-Oct-19 07:34N 35°27' E 139°38'0 0.0
2014-Oct-19 06:34N 35°27' E 139°38'0 0.0
2014-Oct-19 05:34N 35°27' E 139°38'0 0.0
2014-Oct-19 04:34N 35°27' E 139°38'0 0.0
2014-Oct-19 03:34N 35°27' E 139°38'0 0.0
2014-Oct-19 02:34N 35°27' E 139°38'0 0.0
2014-Oct-19 01:34N 35°27' E 139°38'0 0.0
2014-Oct-19 00:34N 35°27' E 139°38'0 0.0
2014-Oct-18 23:33N 35°27' E 139°38'0 0.0
2014-Oct-18 22:33N 35°27' E 139°38'0 0.0
2014-Oct-18 21:33N 35°27' E 139°38'0 0.0
2014-Oct-18 20:34N 35°27' E 139°38'0 0.0
2014-Oct-18 19:34N 35°27' E 139°38'0 0.0
2014-Oct-18 18:33N 35°27' E 139°38'0 0.0
2014-Oct-18 17:33N 35°27' E 139°38'0 0.0
2014-Oct-18 16:33N 35°27' E 139°38'0 0.0
2014-Oct-18 15:33N 35°27' E 139°38'0 0.0
2014-Oct-18 14:34N 35°27' E 139°38'0 0.0
2014-Oct-18 13:34N 35°27' E 139°38'0 0.0
2014-Oct-18 12:34N 35°27' E 139°38'0 0.0
2014-Oct-18 11:34N 35°27' E 139°38'0 0.0
2014-Oct-18 10:34N 35°27' E 139°38'0 0.0
2014-Oct-18 09:33N 35°27' E 139°38'0 0.0
2014-Oct-18 08:34N 35°27' E 139°38'0 0.0
2014-Oct-18 07:34N 35°27' E 139°38'0 0.0
2014-Oct-18 06:34N 35°27' E 139°38'0 0.0
2014-Oct-18 05:33N 35°27' E 139°38'0 0.0
2014-Oct-18 04:34N 35°27' E 139°38'0 0.0
2014-Oct-18 03:34N 35°27' E 139°38'0 0.0
2014-Oct-18 02:33N 35°27' E 139°38'0 0.0
2014-Oct-18 01:34N 35°27' E 139°38'0 0.0
2014-Oct-18 00:34N 35°27' E 139°38'4 4.3
2014-Oct-17 23:34N 35°23' E 139°41'2 2.1
2014-Oct-17 22:34N 35°24' E 139°38'3 2.8
2014-Oct-17 21:34N 35°23' E 139°41'3 2.6
2014-Oct-17 20:34N 35°26' E 139°42'0 0.0
2014-Oct-17 19:34N 35°26' E 139°42'0 0.0
2014-Oct-17 18:34N 35°26' E 139°42'1 1.3
2014-Oct-17 17:33N 35°27' E 139°40'1 1.0
2014-Oct-17 16:34N 35°28' E 139°41'1 0.9
2014-Oct-17 15:34N 35°28' E 139°42'1 0.9
2014-Oct-17 14:34N 35°28' E 139°40'0 0.0
2014-Oct-17 13:33N 35°28' E 139°40'1 1.3
2014-Oct-17 12:34N 35°27' E 139°42'2 2.4
2014-Oct-17 11:34N 35°27' E 139°44'1 1.4
2014-Oct-17 10:33N 35°27' E 139°43'1 1.3
2014-Oct-17 09:34N 35°27' E 139°44'2 2.5
2014-Oct-17 08:34N 35°27' E 139°41'2 2.4
2014-Oct-17 07:33N 35°27' E 139°38'0 0.0
2014-Oct-17 06:34N 35°27' E 139°38'0 0.0
2014-Oct-17 05:34N 35°27' E 139°38'0 0.0
2014-Oct-17 04:34N 35°27' E 139°38'0 0.0
2014-Oct-17 03:34N 35°27' E 139°38'0 0.0
2014-Oct-17 02:33N 35°27' E 139°38'0 0.0
2014-Oct-17 01:34N 35°27' E 139°38'0 0.0
2014-Oct-17 00:33N 35°27' E 139°38'0 0.0
2014-Oct-16 23:34N 35°27' E 139°38'0 0.0
2014-Oct-16 22:34N 35°27' E 139°38'0 0.0
2014-Oct-16 21:33N 35°27' E 139°38'0 0.0
2014-Oct-16 20:34N 35°27' E 139°38'0 0.0
2014-Oct-16 19:34N 35°27' E 139°38'0 0.0
2014-Oct-16 18:33N 35°27' E 139°38'0 0.0
2014-Oct-16 17:34N 35°27' E 139°38'0 0.0
2014-Oct-16 16:34N 35°27' E 139°38'0 0.0
2014-Oct-16 15:34N 35°27' E 139°38'0 0.0
2014-Oct-16 14:34N 35°27' E 139°38'0 0.0
2014-Oct-16 13:33N 35°27' E 139°38'0 0.0
2014-Oct-16 12:34N 35°27' E 139°38'0 0.0
2014-Oct-16 11:34N 35°27' E 139°38'0 0.0
2014-Oct-16 10:33N 35°27' E 139°38'0 0.0
2014-Oct-16 09:33N 35°27' E 139°38'0 0.0
2014-Oct-16 08:34N 35°27' E 139°38'0 0.0
2014-Oct-16 07:34N 35°27' E 139°38'0 0.0
2014-Oct-16 06:34N 35°27' E 139°38'0 0.0
2014-Oct-16 05:34N 35°27' E 139°38'0 0.0
2014-Oct-16 04:33N 35°27' E 139°38'0 0.0
2014-Oct-16 03:33N 35°27' E 139°38'0 0.0
2014-Oct-16 02:33N 35°27' E 139°38'0 0.0
2014-Oct-16 01:34N 35°27' E 139°38'0 0.0
2014-Oct-16 00:33N 35°27' E 139°38'0 0.0
2014-Oct-15 18:24N 35°27' E 139°38'0 0.0
2014-Oct-15 17:34N 35°27' E 139°38'0 0.0
2014-Oct-15 16:34N 35°27' E 139°38'0 0.0
2014-Oct-15 15:34N 35°27' E 139°38'0 0.0
2014-Oct-15 14:34N 35°27' E 139°38'0 0.0
2014-Oct-15 13:34N 35°27' E 139°38'0 0.0
2014-Oct-15 12:34N 35°27' E 139°38'0 0.0
2014-Oct-15 11:34N 35°27' E 139°38'0 0.0
2014-Oct-15 10:33N 35°27' E 139°38'0 0.0
2014-Oct-15 09:33N 35°27' E 139°38'0 0.0
2014-Oct-15 08:34N 35°27' E 139°38'0 0.0
2014-Oct-15 07:34N 35°27' E 139°38'0 0.0
2014-Oct-15 06:34N 35°27' E 139°38'0 0.0
2014-Oct-15 05:33N 35°27' E 139°38'0 0.0
2014-Oct-15 04:34N 35°27' E 139°38'0 0.0
2014-Oct-15 03:33N 35°27' E 139°38'0 0.0
2014-Oct-15 02:33N 35°27' E 139°38'0 0.0
2014-Oct-15 01:34N 35°27' E 139°38'0 0.0
2014-Oct-15 00:33N 35°27' E 139°38'0 0.0
2014-Oct-14 23:34N 35°27' E 139°38'5 4.8
2014-Oct-14 22:34N 35°30' E 139°44'1 0.8
2014-Oct-14 21:34N 35°29' E 139°43'3 2.6
2014-Oct-14 20:34N 35°27' E 139°41'2 1.8
2014-Oct-14 19:34N 35°27' E 139°38'0 0.0
2014-Oct-14 18:33N 35°27' E 139°38'0 0.0
2014-Oct-14 17:34N 35°27' E 139°38'0 0.0
2014-Oct-14 16:34N 35°27' E 139°38'0 0.0
2014-Oct-14 15:34N 35°27' E 139°38'0 0.0
2014-Oct-14 14:33N 35°27' E 139°38'0 0.0
2014-Oct-14 13:33N 35°27' E 139°38'0 0.0
2014-Oct-14 12:34N 35°27' E 139°38'0 0.0
2014-Oct-14 11:34N 35°27' E 139°38'0 0.0
2014-Oct-14 10:34N 35°27' E 139°38'0 0.0
2014-Oct-14 09:34N 35°27' E 139°38'0 0.0
2014-Oct-14 08:34N 35°27' E 139°38'0 0.0
2014-Oct-14 07:34N 35°27' E 139°38'0 0.0
2014-Oct-14 06:34N 35°27' E 139°38'5 4.5
2014-Oct-14 05:34N 35°30' E 139°43'2 2.4
2014-Oct-14 04:34N 35°31' E 139°46'4 3.6
2014-Oct-14 03:34N 35°28' E 139°44'4 4.3
2014-Oct-14 02:33N 35°27' E 139°38'0 0.0
2014-Oct-14 01:33N 35°27' E 139°38'0 0.0
2014-Oct-14 00:33N 35°27' E 139°38'0 0.0
2014-Oct-13 23:33N 35°27' E 139°38'0 0.0
2014-Oct-13 22:33N 35°27' E 139°38'0 0.0
2014-Oct-13 21:33N 35°27' E 139°38'0 0.0
2014-Oct-13 20:24N 35°27' E 139°38'0 0.0
2014-Oct-13 19:30N 35°27' E 139°38'0 0.0
2014-Oct-13 18:29N 35°27' E 139°38'0 0.0
2014-Oct-13 17:33N 35°27' E 139°38'0 0.0
2014-Oct-13 16:33N 35°27' E 139°38'0 0.0
2014-Oct-13 15:32N 35°27' E 139°38'0 0.0
2014-Oct-13 14:29N 35°27' E 139°38'0 0.0
2014-Oct-13 13:33N 35°27' E 139°38'0 0.0
2014-Oct-12 20:34N 35°27' E 139°38'0 0.0
2014-Oct-12 19:34N 35°27' E 139°38'0 0.0
2014-Oct-12 18:33N 35°27' E 139°38'0 0.0
2014-Oct-12 17:33N 35°27' E 139°38'0 0.0
2014-Oct-12 16:34N 35°27' E 139°38'0 0.0
2014-Oct-12 15:34N 35°27' E 139°38'0 0.0
2014-Oct-12 14:34N 35°27' E 139°38'0 0.0
2014-Oct-12 13:34N 35°27' E 139°38'0 0.0
2014-Oct-12 12:33N 35°27' E 139°38'0 0.0
2014-Oct-12 11:34N 35°27' E 139°38'0 0.0
2014-Oct-12 10:34N 35°27' E 139°38'0 0.0
2014-Oct-12 09:33N 35°27' E 139°38'0 0.0
2014-Oct-12 08:34N 35°27' E 139°38'5 4.7
2014-Oct-12 07:34N 35°30' E 139°43'1 1.3
2014-Oct-12 06:33N 35°30' E 139°45'4 4.3
2014-Oct-12 05:34N 35°27' E 139°42'2 1.7
2014-Oct-12 04:33N 35°28' E 139°40'0 0.0
2014-Oct-12 03:34N 35°28' E 139°40'1 0.7
2014-Oct-12 02:33N 35°28' E 139°41'4 3.7
2014-Oct-12 01:33N 35°26' E 139°45'5 5.2
2014-Oct-12 00:33N 35°27' E 139°38'0 0.0
2014-Oct-11 23:33N 35°27' E 139°38'0 0.0
2014-Oct-11 22:34N 35°27' E 139°38'0 0.0
2014-Oct-11 21:33N 35°27' E 139°38'0 0.0
2014-Oct-11 20:33N 35°27' E 139°38'0 0.0
2014-Oct-11 19:33N 35°27' E 139°38'0 0.0
2014-Oct-11 18:33N 35°27' E 139°38'0 0.0
2014-Oct-11 17:34N 35°27' E 139°38'0 0.0
2014-Oct-11 16:34N 35°27' E 139°38'0 0.0
2014-Oct-11 15:33N 35°27' E 139°38'0 0.0
2014-Oct-11 14:33N 35°27' E 139°38'0 0.0
2014-Oct-11 13:34N 35°27' E 139°38'0 0.0
2014-Oct-11 12:34N 35°27' E 139°38'0 0.0
2014-Oct-11 11:33N 35°27' E 139°38'0 0.0
2014-Oct-11 10:33N 35°27' E 139°38'0 0.0
2014-Oct-11 09:33N 35°27' E 139°38'0 0.0
2014-Oct-11 08:33N 35°27' E 139°38'0 0.0
2014-Oct-11 07:34N 35°27' E 139°38'0 0.0
2014-Oct-11 06:34N 35°27' E 139°38'0 0.0
2014-Oct-11 05:33N 35°27' E 139°38'0 0.0
2014-Oct-11 04:34N 35°27' E 139°38'0 0.0
2014-Oct-11 03:33N 35°27' E 139°38'0 0.0
2014-Oct-11 02:34N 35°27' E 139°38'0 0.0
2014-Oct-11 01:34N 35°27' E 139°38'0 0.0
2014-Oct-11 00:34N 35°27' E 139°38'  

Dump ship's entire track history